메인 페이지
METAR-TAF:

METAR-TAF

공항 :

벵갈루루 국제공항

벵갈루루, 인도

위도: 13-11-56N, 경도: 077-42-20E, 고도: 915m

현재 날씨관측

예보는 31분 전, 01:30시(UTC)에 발표되었습니다.
11kt
온도 21°C
습도 100%
기압 1012 hPa
시정: 6000m
고도 1000ft 상공 구름 보통
고도 8000ft 상공 구름 보통

METAR: VOBL 250130Z 26011KT 6000 SCT010 SCT080 21/21 Q1012 NOSIG

시각: 07:31 (02:01 UTC)

예보

예보는 3 시간 1분 전, 23:00시(UTC)에 발표되었습니다.
예보 대상 시간: 25일 00시부터 26일 06시까지 (UTC)
서남서10kt
시정: 6000m
고도 1200ft 상공 구름 보통
고도 8000ft 상공 구름 보통
일시적
25일 09시부터 25일 15시까지 (UTC)
시정: 3000m
고도 800ft 상공 구름 보통
고도 1200ft 상공 구름 보통
고도 8000ft 상공 구름 많음
비, 이슬비

TAF: VOBL 242300Z 2500/2606 25010KT 6000 SCT012 SCT080 TEMPO 2509/2515 3000 RA DZ SCT008 SCT012 BKN080

4,000개 이상의 공항 관측 자료 및 예보 (METAR 및 TAF 보고).

지도상에서 검색 가능한 기상관측소가 노란 점과 빨간 점으로 표시되어 있습니다.

기상관측소 명을 보려면 표시 위로 마우스를 이동하세요.

날씨 관측과 예보를 보려면 클릭하세요.

지도 변경 : 확대하려면 엑스 표시가 있는 녹색 버튼, 축소하려면 빼기 표시가 있는 녹색 버튼, 다음 페이지의 지도를 보려면 녹색 화살표를 클릭하세요.


METAR-TAF: